Time;durP1;ratioP1;P1;durP2;ratioP2;P2;SDS_P1;SDS_P2;PMS_P1;PMS_P2;Temp;Humidity;BMP_temperature;BMP_pressure;BME280_temperature;BME280_humidity;BME280_pressure;Samples;Min_cycle;Max_cycle;Signal;HPM_P1;HPM_P2
2022/08/03 00:01:39;;;;;;;3.75;1.10;;;;;;;;;;5069399;28;20027;-74
2022/08/03 00:04:06;;;;;;;4.40;1.10;;;;;;;;;;5065290;28;20037;-74
2022/08/03 00:06:32;;;;;;;3.88;1.17;;;;;;;;;;5068619;28;20108;-75
2022/08/03 00:08:57;;;;;;;4.55;1.48;;;;;;;;;;5058136;28;20631;-75
2022/08/03 00:11:23;;;;;;;3.33;1.42;;;;;;;;;;5063985;28;20403;-74
2022/08/03 00:13:49;;;;;;;5.60;1.58;;;;;;;;;;5064426;28;20477;-74
2022/08/03 00:16:15;;;;;;;6.30;1.30;;;;;;;;;;5063691;28;20086;-75
2022/08/03 00:18:40;;;;;;;4.85;1.40;;;;;;;;;;5065027;28;20516;-74
2022/08/03 00:21:06;;;;;;;3.67;1.35;;;;;;;;;;5066443;28;20032;-75
2022/08/03 00:23:32;;;;;;;4.50;1.50;;;;;;;;;;5065141;28;20531;-74
2022/08/03 00:25:57;;;;;;;4.53;1.52;;;;;;;;;;5067181;28;20028;-75
2022/08/03 00:28:23;;;;;;;4.13;1.50;;;;;;;;;;5064035;28;20035;-74
2022/08/03 00:30:48;;;;;;;4.82;1.33;;;;;;;;;;5057441;28;20028;-75
2022/08/03 00:33:14;;;;;;;2.60;1.40;;;;;;;;;;5067737;28;20051;-76
2022/08/03 00:35:39;;;;;;;5.20;1.45;;;;;;;;;;5063743;28;20028;-74
2022/08/03 00:38:05;;;;;;;3.92;1.30;;;;;;;;;;5063913;28;20028;-75
2022/08/03 00:40:31;;;;;;;4.72;1.63;;;;;;;;;;5067170;28;20052;-75
2022/08/03 00:43:02;;;;;;;3.60;1.27;;;;;;;;;;5065865;28;20028;-75
2022/08/03 00:45:29;;;;;;;6.07;1.67;;;;;;;;;;5068659;28;20438;-74
2022/08/03 00:47:55;;;;;;;3.47;1.67;;;;;;;;;;5069491;28;20024;-76
2022/08/03 00:50:22;;;;;;;5.18;1.83;;;;;;;;;;5065224;28;20535;-74
2022/08/03 00:52:50;;;;;;;3.33;1.00;;;;;;;;;;5064035;28;20039;-76
2022/08/03 00:55:16;;;;;;;4.53;1.50;;;;;;;;;;5064193;28;20028;-76
2022/08/03 00:57:42;;;;;;;6.05;1.60;;;;;;;;;;5062707;28;20490;-75
2022/08/03 01:00:10;;;;;;;2.95;1.30;;;;;;;;;;5066232;28;20033;-74
2022/08/03 01:02:36;;;;;;;3.97;1.50;;;;;;;;;;5068921;28;20492;-75
2022/08/03 01:05:02;;;;;;;4.60;1.80;;;;;;;;;;5067997;28;20099;-74
2022/08/03 01:07:45;;;;;;;3.60;1.98;;;;;;;;;;5066926;28;20032;-74
2022/08/03 01:10:19;;;;;;;3.10;1.40;;;;;;;;;;5065859;28;20078;-75
2022/08/03 01:13:04;;;;;;;4.05;1.45;;;;;;;;;;5065138;28;20047;-74
2022/08/03 01:15:48;;;;;;;3.88;1.80;;;;;;;;;;5069492;28;20035;-75
2022/08/03 01:18:19;;;;;;;5.85;1.73;;;;;;;;;;5066452;28;20036;-75
2022/08/03 01:20:48;;;;;;;4.40;1.40;;;;;;;;;;5075327;28;20024;-75
2022/08/03 01:23:48;;;;;;;4.78;1.42;;;;;;;;;;5061296;28;20036;-76
2022/08/03 01:26:32;;;;;;;5.63;1.60;;;;;;;;;;5061686;28;20448;-74
2022/08/03 01:29:06;;;;;;;3.80;1.70;;;;;;;;;;5068153;28;20024;-74
2022/08/03 01:31:39;;;;;;;4.20;1.90;;;;;;;;;;5062373;28;20047;-74
2022/08/03 01:34:07;;;;;;;6.47;1.73;;;;;;;;;;5067203;28;20031;-75
2022/08/03 01:36:38;;;;;;;5.43;1.50;;;;;;;;;;5067763;28;20119;-73
2022/08/03 01:39:08;;;;;;;4.47;1.73;;;;;;;;;;5062727;28;20021;-75
2022/08/03 01:41:43;;;;;;;5.43;1.60;;;;;;;;;;5062821;28;20195;-74
2022/08/03 01:44:10;;;;;;;4.15;2.13;;;;;;;;;;5063668;28;20028;-74
2022/08/03 01:46:37;;;;;;;8.38;1.73;;;;;;;;;;5064357;28;20028;-75
2022/08/03 01:49:05;;;;;;;5.85;2.15;;;;;;;;;;5071656;28;20070;-75
2022/08/03 01:51:32;;;;;;;5.55;1.70;;;;;;;;;;5059585;28;20162;-75
2022/08/03 01:53:59;;;;;;;4.78;1.90;;;;;;;;;;5062281;28;20024;-74
2022/08/03 01:56:27;;;;;;;6.22;1.85;;;;;;;;;;5067123;28;20028;-75
2022/08/03 01:58:53;;;;;;;6.60;2.33;;;;;;;;;;5065828;28;20547;-75
2022/08/03 02:01:21;;;;;;;5.95;1.90;;;;;;;;;;5064160;28;20032;-75
2022/08/03 02:03:48;;;;;;;4.03;1.75;;;;;;;;;;5067100;28;20027;-74
2022/08/03 02:06:15;;;;;;;4.68;1.73;;;;;;;;;;5069345;28;20028;-75
2022/08/03 02:08:43;;;;;;;7.38;2.30;;;;;;;;;;5063274;28;20142;-76
2022/08/03 02:11:09;;;;;;;4.20;2.20;;;;;;;;;;5066322;28;20024;-74
2022/08/03 02:13:35;;;;;;;4.70;1.80;;;;;;;;;;5063078;28;20024;-74
2022/08/03 02:16:04;;;;;;;7.63;2.20;;;;;;;;;;5072250;28;20090;-75
2022/08/03 02:18:32;;;;;;;4.38;2.05;;;;;;;;;;5066190;28;20447;-74
2022/08/03 02:21:01;;;;;;;4.45;2.03;;;;;;;;;;5059401;28;20020;-74
2022/08/03 02:23:26;;;;;;;7.32;1.65;;;;;;;;;;5066261;28;20400;-74
2022/08/03 02:25:57;;;;;;;5.70;2.20;;;;;;;;;;5061268;28;20012;-74
2022/08/03 02:28:30;;;;;;;5.88;2.00;;;;;;;;;;5061968;28;20020;-74
2022/08/03 02:31:00;;;;;;;7.90;2.38;;;;;;;;;;5061668;28;20112;-75
2022/08/03 02:33:29;;;;;;;5.85;1.90;;;;;;;;;;5065685;28;20053;-74
2022/08/03 02:35:56;;;;;;;7.05;2.17;;;;;;;;;;5056588;28;20082;-75
2022/08/03 02:38:27;;;;;;;4.93;1.90;;;;;;;;;;5060699;28;20123;-75
2022/08/03 02:40:54;;;;;;;6.75;2.08;;;;;;;;;;5062578;28;20473;-75
2022/08/03 02:43:23;;;;;;;5.03;2.00;;;;;;;;;;5065153;28;20119;-74
2022/08/03 02:45:50;;;;;;;4.05;1.92;;;;;;;;;;5063819;28;20020;-74
2022/08/03 02:48:18;;;;;;;6.85;1.98;;;;;;;;;;5065995;28;20116;-74
2022/08/03 02:50:46;;;;;;;5.95;2.40;;;;;;;;;;5063820;28;20120;-74
2022/08/03 02:53:12;;;;;;;4.00;1.73;;;;;;;;;;5063719;28;20035;-74
2022/08/03 02:55:38;;;;;;;6.80;2.17;;;;;;;;;;5061688;28;20572;-74
2022/08/03 02:58:05;;;;;;;4.07;1.73;;;;;;;;;;5061649;28;20036;-74
2022/08/03 03:00:32;;;;;;;5.05;2.25;;;;;;;;;;5061082;28;20029;-75
2022/08/03 03:03:00;;;;;;;6.80;2.15;;;;;;;;;;5071357;28;20028;-74
2022/08/03 03:05:26;;;;;;;5.95;1.95;;;;;;;;;;5063172;28;20093;-74
2022/08/03 03:07:52;;;;;;;6.40;2.50;;;;;;;;;;5062347;28;20423;-74
2022/08/03 03:10:21;;;;;;;5.82;2.10;;;;;;;;;;5063414;28;20032;-76
2022/08/03 03:12:50;;;;;;;5.40;2.20;;;;;;;;;;5068716;28;20511;-75
2022/08/03 03:15:15;;;;;;;5.80;2.30;;;;;;;;;;5064316;28;20032;-74
2022/08/03 03:17:42;;;;;;;5.50;2.22;;;;;;;;;;5064229;28;20029;-75
2022/08/03 03:20:08;;;;;;;6.43;2.33;;;;;;;;;;5065759;28;20481;-75
2022/08/03 03:22:34;;;;;;;7.38;2.13;;;;;;;;;;5059349;28;20081;-74
2022/08/03 03:25:01;;;;;;;5.15;1.90;;;;;;;;;;5053399;28;20025;-75
2022/08/03 03:27:26;;;;;;;4.95;2.03;;;;;;;;;;5063581;28;20020;-75
2022/08/03 03:29:52;;;;;;;5.13;2.13;;;;;;;;;;5062854;28;20074;-74
2022/08/03 03:32:17;;;;;;;6.25;2.40;;;;;;;;;;5066115;28;20051;-74
2022/08/03 03:34:43;;;;;;;4.75;2.30;;;;;;;;;;5065469;28;20032;-75
2022/08/03 03:37:09;;;;;;;4.97;2.03;;;;;;;;;;5066858;28;20032;-74
2022/08/03 03:39:35;;;;;;;8.25;2.53;;;;;;;;;;5064045;28;20541;-74
2022/08/03 03:42:01;;;;;;;4.63;2.20;;;;;;;;;;5062713;28;20021;-74
2022/08/03 03:44:28;;;;;;;5.80;2.50;;;;;;;;;;5063925;28;20025;-75
2022/08/03 03:46:56;;;;;;;5.72;2.30;;;;;;;;;;5059856;28;20040;-74
2022/08/03 03:49:21;;;;;;;5.15;3.03;;;;;;;;;;5067553;28;20036;-74
2022/08/03 03:51:47;;;;;;;6.53;2.40;;;;;;;;;;5065925;28;20024;-74
2022/08/03 03:54:12;;;;;;;4.90;2.22;;;;;;;;;;5066175;28;20427;-74
2022/08/03 03:56:38;;;;;;;6.82;2.75;;;;;;;;;;5060923;28;20035;-75
2022/08/03 03:59:04;;;;;;;5.72;2.63;;;;;;;;;;5066650;28;20029;-74
2022/08/03 04:01:29;;;;;;;6.30;2.33;;;;;;;;;;5059180;28;20085;-75
2022/08/03 04:03:55;;;;;;;7.80;2.40;;;;;;;;;;5066356;28;20060;-74
2022/08/03 04:11:52;;;;;;;6.45;2.33;;;;;;;;;;5064869;28;20062;-75
2022/08/03 04:14:21;;;;;;;6.10;2.63;;;;;;;;;;5059432;28;20028;-75
2022/08/03 04:16:55;;;;;;;6.55;2.17;;;;;;;;;;5071474;28;20091;-75
2022/08/03 04:19:27;;;;;;;6.22;2.22;;;;;;;;;;5068362;28;20045;-75
2022/08/03 04:21:57;;;;;;;4.83;1.90;;;;;;;;;;5069240;28;20488;-74
2022/08/03 04:24:26;;;;;;;7.75;2.38;;;;;;;;;;5067120;28;20399;-75
2022/08/03 04:26:53;;;;;;;6.85;2.55;;;;;;;;;;5069142;28;20388;-74
2022/08/03 04:29:19;;;;;;;5.60;1.90;;;;;;;;;;5070855;28;20023;-75
2022/08/03 04:31:45;;;;;;;4.25;2.10;;;;;;;;;;5069171;28;20503;-75
2022/08/03 04:34:11;;;;;;;4.88;2.25;;;;;;;;;;5067620;28;20031;-74
2022/08/03 04:36:45;;;;;;;6.18;2.50;;;;;;;;;;5067224;28;20033;-75
2022/08/03 04:39:15;;;;;;;6.60;2.47;;;;;;;;;;5068717;28;20055;-75
2022/08/03 04:41:43;;;;;;;5.32;2.20;;;;;;;;;;5073663;28;20037;-75
2022/08/03 04:44:09;;;;;;;4.30;2.08;;;;;;;;;;5064378;28;20032;-75
2022/08/03 04:46:37;;;;;;;5.50;2.30;;;;;;;;;;5068705;28;20025;-74
2022/08/03 04:49:04;;;;;;;6.13;2.40;;;;;;;;;;5072642;28;20025;-74
2022/08/03 04:51:30;;;;;;;6.25;1.90;;;;;;;;;;5064949;28;20032;-74
2022/08/03 04:53:56;;;;;;;5.78;2.53;;;;;;;;;;5069422;28;20103;-75
2022/08/03 04:56:21;;;;;;;5.15;2.25;;;;;;;;;;5066292;28;20028;-74
2022/08/03 04:58:47;;;;;;;7.68;2.10;;;;;;;;;;5061348;28;20031;-74
2022/08/03 05:01:12;;;;;;;7.18;2.20;;;;;;;;;;5065489;28;20024;-74
2022/08/03 05:03:37;;;;;;;6.10;2.15;;;;;;;;;;5069741;28;20028;-74
2022/08/03 05:06:04;;;;;;;7.03;1.98;;;;;;;;;;5058690;28;20464;-75
2022/08/03 05:08:29;;;;;;;6.18;2.45;;;;;;;;;;5066592;28;20025;-74
2022/08/03 05:10:58;;;;;;;5.93;2.10;;;;;;;;;;5066787;28;20020;-74
2022/08/03 05:13:23;;;;;;;4.82;2.28;;;;;;;;;;5071774;28;20028;-74
2022/08/03 05:15:49;;;;;;;5.40;2.08;;;;;;;;;;5063346;28;20544;-74
2022/08/03 05:18:15;;;;;;;8.35;2.38;;;;;;;;;;5064428;28;20088;-74
2022/08/03 05:20:40;;;;;;;6.85;2.45;;;;;;;;;;5069920;28;21550;-75
2022/08/03 05:23:06;;;;;;;4.80;1.92;;;;;;;;;;5072054;28;20434;-74
2022/08/03 05:25:31;;;;;;;7.90;2.30;;;;;;;;;;5074368;28;20028;-74
2022/08/03 05:27:56;;;;;;;7.80;2.70;;;;;;;;;;5065695;28;20020;-75
2022/08/03 05:30:22;;;;;;;4.28;2.20;;;;;;;;;;5071434;28;20073;-74
2022/08/03 05:32:47;;;;;;;7.97;2.35;;;;;;;;;;5073917;28;20079;-74
2022/08/03 05:35:13;;;;;;;5.35;2.35;;;;;;;;;;5065782;28;20970;-74
2022/08/03 05:37:38;;;;;;;5.78;2.35;;;;;;;;;;5062582;28;20481;-75
2022/08/03 05:40:04;;;;;;;5.40;2.00;;;;;;;;;;5064832;28;20039;-75
2022/08/03 05:42:30;;;;;;;5.00;2.20;;;;;;;;;;5067841;28;20107;-75
2022/08/03 05:44:55;;;;;;;5.57;2.40;;;;;;;;;;5062360;28;20153;-75
2022/08/03 05:47:20;;;;;;;6.85;2.33;;;;;;;;;;5059689;28;20095;-75
2022/08/03 05:49:46;;;;;;;6.93;2.72;;;;;;;;;;5065783;28;20111;-74
2022/08/03 05:52:11;;;;;;;6.82;2.70;;;;;;;;;;5062857;28;20024;-73
2022/08/03 05:54:37;;;;;;;6.20;2.35;;;;;;;;;;5065552;28;20061;-75
2022/08/03 05:57:02;;;;;;;7.00;2.67;;;;;;;;;;5066144;28;20192;-75
2022/08/03 05:59:27;;;;;;;5.80;2.10;;;;;;;;;;5070419;28;20035;-75
2022/08/03 06:01:53;;;;;;;7.18;2.15;;;;;;;;;;5064794;28;20218;-74
2022/08/03 06:04:18;;;;;;;5.32;2.28;;;;;;;;;;5069144;28;20021;-75
2022/08/03 06:06:44;;;;;;;6.07;2.53;;;;;;;;;;5060073;28;20024;-74
2022/08/03 06:09:09;;;;;;;6.97;2.00;;;;;;;;;;5067514;28;20480;-75
2022/08/03 06:11:35;;;;;;;5.18;1.92;;;;;;;;;;5066806;28;20028;-74
2022/08/03 06:14:02;;;;;;;5.68;2.15;;;;;;;;;;5067705;28;20037;-75
2022/08/03 06:16:27;;;;;;;5.75;2.13;;;;;;;;;;5066552;28;20395;-74
2022/08/03 06:18:52;;;;;;;4.53;1.65;;;;;;;;;;5068883;28;20032;-75
2022/08/03 06:21:18;;;;;;;7.20;2.15;;;;;;;;;;5071181;28;20024;-75
2022/08/03 06:23:45;;;;;;;5.25;2.03;;;;;;;;;;5068550;28;20060;-73
2022/08/03 06:26:10;;;;;;;7.75;1.60;;;;;;;;;;5069478;28;20029;-75
2022/08/03 06:28:35;;;;;;;5.93;1.85;;;;;;;;;;5069190;28;20043;-73
2022/08/03 06:31:01;;;;;;;9.75;1.73;;;;;;;;;;5063644;28;20042;-76
2022/08/03 06:33:27;;;;;;;7.65;1.65;;;;;;;;;;5064398;28;20114;-74
2022/08/03 06:35:52;;;;;;;5.85;1.92;;;;;;;;;;5068833;28;20032;-76
2022/08/03 06:38:18;;;;;;;6.57;1.70;;;;;;;;;;5062184;28;20063;-74
2022/08/03 06:40:43;;;;;;;12.88;1.90;;;;;;;;;;5063118;28;20320;-77
2022/08/03 06:43:09;;;;;;;5.32;1.55;;;;;;;;;;5064432;28;20139;-74
2022/08/03 06:45:34;;;;;;;8.07;1.92;;;;;;;;;;5069363;28;20073;-76
2022/08/03 06:48:05;;;;;;;7.15;1.60;;;;;;;;;;5064273;28;20392;-75
2022/08/03 06:50:31;;;;;;;9.55;1.85;;;;;;;;;;5063646;28;20024;-76
2022/08/03 06:52:57;;;;;;;10.43;2.10;;;;;;;;;;5061085;28;20452;-75
2022/08/03 06:55:23;;;;;;;7.47;2.55;;;;;;;;;;5069233;28;20147;-73
2022/08/03 06:57:48;;;;;;;5.93;1.67;;;;;;;;;;5063358;28;20025;-74
2022/08/03 07:00:14;;;;;;;6.47;2.03;;;;;;;;;;5065236;28;20040;-74
2022/08/03 07:02:39;;;;;;;9.75;2.00;;;;;;;;;;5061656;28;20033;-75
2022/08/03 07:05:06;;;;;;;7.78;2.28;;;;;;;;;;5069259;28;20020;-75
2022/08/03 07:07:31;;;;;;;9.43;1.80;;;;;;;;;;5064932;28;20036;-74
2022/08/03 07:09:57;;;;;;;6.03;1.95;;;;;;;;;;5065771;28;20032;-73
2022/08/03 07:12:22;;;;;;;6.53;1.60;;;;;;;;;;5070341;28;20021;-74
2022/08/03 07:14:47;;;;;;;7.70;1.65;;;;;;;;;;5069665;28;20720;-76
2022/08/03 07:17:13;;;;;;;8.50;2.05;;;;;;;;;;5066734;28;20052;-75
2022/08/03 07:19:38;;;;;;;10.80;2.65;;;;;;;;;;5068296;28;20078;-74
2022/08/03 07:22:04;;;;;;;7.95;2.20;;;;;;;;;;5073438;28;20535;-74
2022/08/03 07:24:29;;;;;;;11.20;1.80;;;;;;;;;;5071059;28;20123;-76
2022/08/03 07:26:54;;;;;;;9.70;2.72;;;;;;;;;;5065690;28;20021;-75
2022/08/03 07:29:20;;;;;;;9.90;1.83;;;;;;;;;;5060969;28;20033;-76
2022/08/03 07:31:45;;;;;;;6.53;1.70;;;;;;;;;;5062864;28;20045;-76
2022/08/03 07:34:11;;;;;;;6.95;1.85;;;;;;;;;;5069048;28;20032;-73
2022/08/03 07:36:36;;;;;;;6.63;1.80;;;;;;;;;;5069459;28;20085;-74
2022/08/03 07:39:03;;;;;;;7.30;1.73;;;;;;;;;;5064980;28;20095;-75
2022/08/03 07:41:28;;;;;;;9.27;1.90;;;;;;;;;;5066891;28;20082;-74
2022/08/03 07:43:53;;;;;;;6.43;1.65;;;;;;;;;;5068183;28;20063;-76
2022/08/03 07:46:19;;;;;;;8.80;1.70;;;;;;;;;;5064722;28;20385;-76
2022/08/03 07:48:44;;;;;;;6.85;2.05;;;;;;;;;;5061635;28;20036;-74
2022/08/03 07:51:09;;;;;;;5.90;1.65;;;;;;;;;;5066612;28;20484;-76
2022/08/03 07:53:35;;;;;;;8.80;2.03;;;;;;;;;;5064309;28;20090;-74
2022/08/03 07:56:00;;;;;;;7.70;2.20;;;;;;;;;;5067077;28;20027;-75
2022/08/03 07:58:26;;;;;;;6.43;2.00;;;;;;;;;;5063442;28;20055;-75
2022/08/03 08:00:51;;;;;;;5.68;1.73;;;;;;;;;;5071041;28;20017;-75
2022/08/03 08:03:17;;;;;;;9.20;2.00;;;;;;;;;;5071911;28;20625;-75
2022/08/03 08:05:43;;;;;;;6.18;1.70;;;;;;;;;;5068208;28;20025;-75
2022/08/03 08:08:08;;;;;;;9.88;2.00;;;;;;;;;;5066984;28;20027;-76
2022/08/03 08:10:34;;;;;;;5.35;1.83;;;;;;;;;;5065888;28;20442;-74
2022/08/03 08:13:00;;;;;;;9.75;2.10;;;;;;;;;;5067134;28;20499;-74
2022/08/03 08:15:26;;;;;;;6.90;1.85;;;;;;;;;;5063977;28;20033;-75
2022/08/03 08:17:54;;;;;;;10.27;2.28;;;;;;;;;;5066514;28;20442;-75
2022/08/03 08:20:21;;;;;;;10.73;2.45;;;;;;;;;;5061342;28;20036;-76
2022/08/03 08:22:47;;;;;;;8.02;1.65;;;;;;;;;;5063012;28;20035;-74
2022/08/03 08:25:12;;;;;;;9.02;1.70;;;;;;;;;;5068699;28;20017;-74
2022/08/03 08:27:47;;;;;;;8.80;1.52;;;;;;;;;;5063060;28;20484;-76
2022/08/03 08:30:15;;;;;;;5.47;1.52;;;;;;;;;;5060403;28;20491;-75
2022/08/03 08:32:41;;;;;;;7.00;1.50;;;;;;;;;;5069087;28;20489;-74
2022/08/03 08:35:08;;;;;;;9.20;1.70;;;;;;;;;;5066808;28;20034;-75
2022/08/03 08:37:34;;;;;;;7.40;1.83;;;;;;;;;;5066396;28;20082;-74
2022/08/03 08:39:59;;;;;;;6.35;1.42;;;;;;;;;;5067555;28;20028;-74
2022/08/03 08:42:25;;;;;;;10.10;1.80;;;;;;;;;;5066066;28;20024;-73
2022/08/03 08:44:51;;;;;;;9.48;1.40;;;;;;;;;;5065713;28;20111;-75
2022/08/03 08:47:43;;;;;;;6.93;1.65;;;;;;;;;;5069914;28;20484;-73
2022/08/03 08:50:09;;;;;;;8.23;1.50;;;;;;;;;;5062117;28;20040;-77
2022/08/03 08:52:38;;;;;;;9.10;1.50;;;;;;;;;;5070778;28;20091;-73
2022/08/03 08:55:06;;;;;;;8.63;1.60;;;;;;;;;;5059533;28;20074;-75
2022/08/03 08:57:37;;;;;;;7.47;1.20;;;;;;;;;;5065222;28;20117;-75
2022/08/03 09:00:14;;;;;;;9.45;1.80;;;;;;;;;;5070060;28;20111;-76
2022/08/03 09:02:43;;;;;;;7.75;1.63;;;;;;;;;;5075352;28;20495;-73
2022/08/03 09:05:17;;;;;;;10.90;2.20;;;;;;;;;;5062338;28;20024;-75
2022/08/03 09:07:44;;;;;;;7.45;1.33;;;;;;;;;;5071062;28;20103;-75
2022/08/03 09:10:12;;;;;;;10.95;2.08;;;;;;;;;;5072947;28;20393;-74
2022/08/03 09:12:42;;;;;;;6.72;1.60;;;;;;;;;;5071710;28;20438;-73
2022/08/03 09:15:34;;;;;;;8.55;1.58;;;;;;;;;;5073965;28;20028;-76
2022/08/03 09:18:01;;;;;;;8.32;1.35;;;;;;;;;;5071519;28;20037;-74
2022/08/03 09:20:32;;;;;;;7.05;1.50;;;;;;;;;;5073108;28;20472;-75
2022/08/03 09:22:58;;;;;;;6.60;1.60;;;;;;;;;;5078601;28;20029;-74
2022/08/03 09:25:32;;;;;;;7.28;1.50;;;;;;;;;;5067847;28;20024;-74
2022/08/03 09:28:12;;;;;;;9.05;1.67;;;;;;;;;;5066183;28;20025;-75
2022/08/03 09:30:40;;;;;;;9.50;2.03;;;;;;;;;;5074259;28;20020;-75
2022/08/03 09:33:16;;;;;;;8.85;1.40;;;;;;;;;;5073531;28;20052;-75
2022/08/03 09:35:46;;;;;;;5.25;1.27;;;;;;;;;;5074978;28;20036;-75
2022/08/03 09:38:22;;;;;;;8.52;1.90;;;;;;;;;;5071264;28;20029;-74
2022/08/03 09:40:48;;;;;;;7.55;1.60;;;;;;;;;;5075571;28;20036;-73
2022/08/03 09:43:14;;;;;;;8.10;1.50;;;;;;;;;;5076555;28;20020;-73
2022/08/03 09:45:40;;;;;;;6.55;1.65;;;;;;;;;;5070605;28;20491;-74
2022/08/03 09:48:26;;;;;;;12.45;2.25;;;;;;;;;;5077084;28;20040;-75
2022/08/03 09:50:56;;;;;;;7.68;1.60;;;;;;;;;;5074564;28;20427;-74
2022/08/03 09:53:23;;;;;;;8.48;1.40;;;;;;;;;;5071867;28;21628;-74
2022/08/03 09:56:00;;;;;;;10.70;1.85;;;;;;;;;;5077940;28;20031;-74
2022/08/03 09:58:27;;;;;;;10.32;1.60;;;;;;;;;;5074872;28;20070;-75
2022/08/03 10:01:04;;;;;;;5.95;1.20;;;;;;;;;;5063775;28;20459;-74
2022/08/03 10:03:33;;;;;;;8.43;1.48;;;;;;;;;;5063828;28;20124;-75
2022/08/03 10:06:18;;;;;;;7.18;1.40;;;;;;;;;;5058756;28;20048;-74
2022/08/03 10:08:44;;;;;;;8.55;1.40;;;;;;;;;;5064441;28;20028;-74
2022/08/03 10:11:09;;;;;;;7.82;1.88;;;;;;;;;;5060378;28;20102;-74
2022/08/03 10:13:35;;;;;;;9.20;2.00;;;;;;;;;;5060422;28;20500;-74
2022/08/03 10:16:03;;;;;;;6.43;1.17;;;;;;;;;;5066572;28;20032;-74
2022/08/03 10:18:29;;;;;;;7.55;1.85;;;;;;;;;;5068841;28;20032;-74
2022/08/03 10:21:02;;;;;;;6.55;1.65;;;;;;;;;;5066947;28;20029;-75
2022/08/03 10:23:28;;;;;;;8.40;2.10;;;;;;;;;;5073686;28;20452;-74
2022/08/03 10:26:00;;;;;;;4.55;1.35;;;;;;;;;;5058274;28;20032;-75
2022/08/03 10:28:34;;;;;;;6.53;1.40;;;;;;;;;;5063694;28;20035;-74
2022/08/03 10:31:00;;;;;;;9.32;1.33;;;;;;;;;;5059894;28;20491;-74
2022/08/03 10:33:33;;;;;;;9.25;2.00;;;;;;;;;;5060806;28;20447;-75
2022/08/03 10:36:00;;;;;;;6.55;1.80;;;;;;;;;;5062540;28;20373;-75
2022/08/03 10:38:36;;;;;;;8.38;1.73;;;;;;;;;;5063376;28;20035;-74
2022/08/03 10:41:03;;;;;;;8.30;1.63;;;;;;;;;;5060367;28;20504;-75
2022/08/03 10:43:47;;;;;;;6.45;1.55;;;;;;;;;;5062925;28;20035;-74
2022/08/03 10:46:16;;;;;;;8.07;1.33;;;;;;;;;;5065974;28;20021;-75
2022/08/03 10:48:42;;;;;;;6.22;1.63;;;;;;;;;;5061767;28;20037;-74
2022/08/03 10:51:08;;;;;;;8.73;1.80;;;;;;;;;;5062423;28;20036;-75
2022/08/03 10:53:39;;;;;;;6.60;1.38;;;;;;;;;;5060071;28;20838;-74
2022/08/03 10:58:52;;;;;;;6.78;1.30;;;;;;;;;;5058040;28;20079;-75
2022/08/03 11:01:39;;;;;;;8.75;2.20;;;;;;;;;;5058924;28;20098;-74
2022/08/03 11:04:04;;;;;;;10.55;1.50;;;;;;;;;;5059666;28;20109;-75
2022/08/03 11:06:29;;;;;;;9.38;2.20;;;;;;;;;;5069879;28;20024;-74
2022/08/03 11:09:17;;;;;;;5.78;1.40;;;;;;;;;;5059048;28;20103;-74
2022/08/03 11:11:45;;;;;;;8.85;2.55;;;;;;;;;;5061986;28;20024;-73
2022/08/03 11:14:13;;;;;;;8.73;1.38;;;;;;;;;;5063359;28;20031;-75
2022/08/03 11:17:08;;;;;;;7.63;1.52;;;;;;;;;;5061904;28;20036;-74
2022/08/03 11:19:51;;;;;;;7.57;1.60;;;;;;;;;;5042948;28;20489;-74
2022/08/03 11:22:18;;;;;;;4.60;1.05;;;;;;;;;;5063377;28;20404;-75
2022/08/03 11:24:50;;;;;;;9.05;1.58;;;;;;;;;;5064450;28;20439;-74
2022/08/03 11:27:33;;;;;;;8.63;1.33;;;;;;;;;;5064253;28;20039;-74
2022/08/03 11:30:17;;;;;;;9.38;1.77;;;;;;;;;;5062636;28;20036;-74
2022/08/03 11:32:42;;;;;;;7.45;1.55;;;;;;;;;;5059482;28;20044;-75
2022/08/03 11:35:30;;;;;;;10.77;1.40;;;;;;;;;;5060916;28;20028;-74
2022/08/03 11:37:59;;;;;;;7.18;1.33;;;;;;;;;;5052692;28;20064;-74
2022/08/03 11:40:45;;;;;;;8.30;1.13;;;;;;;;;;5049121;28;20236;-74
2022/08/03 11:43:46;;;;;;;7.18;1.50;;;;;;;;;;5057469;28;20031;-74
2022/08/03 11:46:17;;;;;;;4.55;1.05;;;;;;;;;;5053231;28;20257;-74
2022/08/03 11:48:45;;;;;;;8.95;1.55;;;;;;;;;;5049573;28;20036;-74
2022/08/03 11:51:22;;;;;;;4.32;1.00;;;;;;;;;;5049273;28;20480;-74
2022/08/03 11:53:59;;;;;;;6.65;1.20;;;;;;;;;;5066766;28;20024;-77
2022/08/03 11:56:25;;;;;;;4.97;1.20;;;;;;;;;;5058859;28;20037;-75
2022/08/03 11:58:54;;;;;;;6.03;0.80;;;;;;;;;;5055703;28;20079;-76
2022/08/03 12:01:20;;;;;;;6.60;1.10;;;;;;;;;;5066752;28;20028;-77
2022/08/03 12:03:46;;;;;;;5.65;1.23;;;;;;;;;;5068696;28;20044;-77
2022/08/03 12:06:14;;;;;;;7.25;0.95;;;;;;;;;;5068684;28;20071;-74
2022/08/03 12:08:40;;;;;;;6.43;1.20;;;;;;;;;;5070975;28;20029;-75
2022/08/03 12:11:09;;;;;;;4.32;0.90;;;;;;;;;;5070343;28;20025;-76
2022/08/03 12:13:36;;;;;;;4.28;0.90;;;;;;;;;;5071681;28;20024;-77
2022/08/03 12:16:02;;;;;;;5.13;1.27;;;;;;;;;;5069267;28;20067;-76
2022/08/03 12:18:27;;;;;;;4.57;1.15;;;;;;;;;;5065718;28;20056;-74
2022/08/03 12:21:03;;;;;;;4.95;1.20;;;;;;;;;;5066315;28;20115;-75
2022/08/03 12:23:29;;;;;;;6.22;1.50;;;;;;;;;;5062999;28;20108;-75
2022/08/03 12:26:01;;;;;;;4.10;1.17;;;;;;;;;;5066245;28;20025;-76
2022/08/03 12:28:26;;;;;;;4.70;0.82;;;;;;;;;;5066725;28;20037;-76
2022/08/03 12:30:52;;;;;;;3.80;1.35;;;;;;;;;;5065034;28;20130;-74
2022/08/03 12:33:25;;;;;;;7.97;1.83;;;;;;;;;;5063283;28;20055;-74
2022/08/03 12:36:08;;;;;;;3.40;0.95;;;;;;;;;;5065842;28;20036;-77
2022/08/03 12:38:36;;;;;;;3.83;1.52;;;;;;;;;;5067530;28;20085;-77
2022/08/03 12:41:12;;;;;;;4.97;1.17;;;;;;;;;;5064797;28;20028;-76
2022/08/03 12:43:49;;;;;;;4.38;1.33;;;;;;;;;;5070303;28;20485;-75
2022/08/03 12:46:17;;;;;;;2.30;0.80;;;;;;;;;;5065380;28;20031;-75
2022/08/03 12:48:58;;;;;;;2.45;0.90;;;;;;;;;;5066279;28;20027;-77
2022/08/03 12:51:26;;;;;;;6.07;1.00;;;;;;;;;;5068186;28;20040;-76
2022/08/03 12:53:56;;;;;;;3.88;1.08;;;;;;;;;;5068362;28;20028;-76
2022/08/03 12:56:21;;;;;;;1.85;0.80;;;;;;;;;;5055012;28;20110;-75
2022/08/03 12:58:47;;;;;;;3.53;0.90;;;;;;;;;;5069198;28;20150;-76
2022/08/03 13:01:13;;;;;;;4.00;1.08;;;;;;;;;;5066885;28;20036;-77
2022/08/03 13:03:40;;;;;;;5.65;1.25;;;;;;;;;;5069731;28;20043;-76
2022/08/03 13:06:17;;;;;;;3.50;1.20;;;;;;;;;;5065439;28;20078;-77
2022/08/03 13:08:44;;;;;;;4.40;1.00;;;;;;;;;;5069179;28;20385;-74
2022/08/03 13:11:25;;;;;;;4.50;1.00;;;;;;;;;;5070908;28;20027;-75
2022/08/03 13:13:52;;;;;;;6.70;1.10;;;;;;;;;;5066194;28;20039;-75
2022/08/03 13:16:18;;;;;;;5.65;1.10;;;;;;;;;;5065718;28;20063;-75
2022/08/03 13:18:46;;;;;;;3.67;1.73;;;;;;;;;;5060760;28;20079;-76
2022/08/03 13:21:14;;;;;;;5.72;1.40;;;;;;;;;;5064359;28;20028;-76
2022/08/03 13:23:40;;;;;;;5.50;1.35;;;;;;;;;;5063400;28;20387;-77
2022/08/03 13:26:05;;;;;;;4.30;1.20;;;;;;;;;;5069142;28;20032;-77
2022/08/03 13:28:31;;;;;;;7.15;1.30;;;;;;;;;;5069046;28;20029;-75
2022/08/03 13:30:56;;;;;;;3.92;1.05;;;;;;;;;;5068652;28;20024;-77
2022/08/03 13:33:21;;;;;;;4.05;1.10;;;;;;;;;;5080349;28;20053;-74
2022/08/03 13:35:47;;;;;;;4.57;1.05;;;;;;;;;;5066580;28;20024;-74
2022/08/03 13:38:12;;;;;;;3.45;1.20;;;;;;;;;;5065355;28;20081;-75
2022/08/03 13:40:38;;;;;;;5.22;1.38;;;;;;;;;;5065398;28;20032;-75
2022/08/03 13:43:03;;;;;;;3.97;1.10;;;;;;;;;;5064484;28;20044;-77
2022/08/03 13:45:28;;;;;;;6.90;1.27;;;;;;;;;;5063102;28;20035;-76
2022/08/03 13:47:54;;;;;;;5.35;1.30;;;;;;;;;;5072170;28;20048;-75
2022/08/03 13:50:19;;;;;;;1.98;1.15;;;;;;;;;;5072048;28;20381;-76
2022/08/03 13:52:45;;;;;;;8.07;1.38;;;;;;;;;;5070120;28;20037;-76
2022/08/03 13:55:11;;;;;;;7.38;1.20;;;;;;;;;;5066333;28;20031;-75
2022/08/03 13:57:37;;;;;;;3.55;1.30;;;;;;;;;;5073274;28;20138;-77
2022/08/03 14:00:04;;;;;;;5.13;1.10;;;;;;;;;;5073865;28;20020;-75
2022/08/03 14:02:29;;;;;;;7.28;1.60;;;;;;;;;;5072958;28;20028;-74
2022/08/03 14:04:55;;;;;;;5.07;1.33;;;;;;;;;;5070703;28;20123;-76
2022/08/03 14:07:20;;;;;;;6.75;1.30;;;;;;;;;;5068495;28;20109;-75
2022/08/03 14:09:46;;;;;;;5.22;1.13;;;;;;;;;;5073903;28;20031;-74
2022/08/03 14:12:11;;;;;;;5.65;1.38;;;;;;;;;;5076305;28;20030;-75
2022/08/03 14:14:36;;;;;;;6.60;1.20;;;;;;;;;;5067306;28;20028;-74
2022/08/03 14:17:02;;;;;;;5.97;1.20;;;;;;;;;;5067576;28;20028;-77
2022/08/03 14:19:27;;;;;;;3.60;1.30;;;;;;;;;;5070272;28;20056;-77
2022/08/03 14:21:53;;;;;;;4.70;1.17;;;;;;;;;;5074712;28;20023;-75
2022/08/03 14:24:18;;;;;;;4.85;1.20;;;;;;;;;;5073038;28;20024;-75
2022/08/03 14:26:44;;;;;;;4.50;1.40;;;;;;;;;;5071139;28;20085;-77
2022/08/03 14:29:09;;;;;;;3.67;1.15;;;;;;;;;;5068856;28;20052;-74
2022/08/03 14:31:35;;;;;;;5.20;1.30;;;;;;;;;;5064848;28;20048;-77
2022/08/03 14:34:01;;;;;;;4.38;1.88;;;;;;;;;;5072281;28;20030;-77
2022/08/03 14:36:26;;;;;;;4.13;1.20;;;;;;;;;;5077260;28;20024;-74
2022/08/03 14:38:52;;;;;;;4.07;1.20;;;;;;;;;;5076789;28;20081;-77
2022/08/03 14:41:17;;;;;;;2.67;1.15;;;;;;;;;;5073691;28;20032;-75
2022/08/03 14:43:42;;;;;;;4.28;1.23;;;;;;;;;;5071717;28;20024;-76
2022/08/03 14:46:08;;;;;;;3.85;1.10;;;;;;;;;;5072714;28;20477;-75
2022/08/03 14:48:33;;;;;;;4.13;1.20;;;;;;;;;;5074507;28;20384;-76
2022/08/03 14:50:59;;;;;;;5.00;1.02;;;;;;;;;;5071581;28;20431;-73
2022/08/03 14:53:24;;;;;;;4.50;1.38;;;;;;;;;;5070912;28;20055;-76
2022/08/03 14:55:51;;;;;;;4.55;1.20;;;;;;;;;;5074189;28;20487;-73
2022/08/03 14:58:21;;;;;;;3.55;1.48;;;;;;;;;;5059108;28;20032;-76